createdAt,value
2022-10-03T00:02:46.610Z,94116.63
2022-10-03T00:06:07.327Z,94113.13
2022-10-03T00:09:25.913Z,94119.47
2022-10-03T00:12:49.863Z,94117.78
2022-10-03T00:15:55.587Z,94122.09
2022-10-03T00:19:32.416Z,94124.38
2022-10-03T00:23:03.930Z,94119.34
2022-10-03T00:26:28.919Z,94121.75
2022-10-03T00:29:32.037Z,94129.69
2022-10-03T00:32:58.011Z,94132.19
2022-10-03T00:36:16.235Z,94130.84
2022-10-03T00:39:57.447Z,94134.53
2022-10-03T00:43:22.389Z,94139.53
2022-10-03T00:47:05.411Z,94133.91
2022-10-03T00:50:38.961Z,94123.63
2022-10-03T00:54:02.558Z,94130.19
2022-10-03T00:57:17.842Z,94132.47
2022-10-03T01:00:32.932Z,94124.28
2022-10-03T01:03:54.664Z,94130.94
2022-10-03T01:07:29.393Z,94133.06
2022-10-03T01:10:46.969Z,94138.63
2022-10-03T01:14:07.162Z,94136.19
2022-10-03T01:17:22.530Z,94128.06
2022-10-03T01:20:51.667Z,94133.13
2022-10-03T01:24:05.330Z,94139.97
2022-10-03T01:28:03.916Z,94141.16
2022-10-03T01:31:11.789Z,94131.88
2022-10-03T01:34:27.307Z,94132.34
2022-10-03T01:37:38.582Z,94135.13
2022-10-03T01:40:52.287Z,94123.69
2022-10-03T01:44:25.714Z,94121.25
2022-10-03T01:47:48.405Z,94117.78
2022-10-03T01:51:05.134Z,94111.91
2022-10-03T01:54:30.075Z,94109.47
2022-10-03T01:57:46.928Z,94119.19
2022-10-03T02:01:16.325Z,94120.41
2022-10-03T02:04:51.504Z,94117.63
2022-10-03T02:08:23.927Z,94104.16
2022-10-03T02:11:39.923Z,94096.59
2022-10-03T02:15:02.221Z,94114.59
2022-10-03T02:18:28.238Z,94102.16
2022-10-03T02:21:32.868Z,94109.34
2022-10-03T02:25:06.702Z,94102.28
2022-10-03T02:28:34.373Z,94094.00
2022-10-03T02:32:07.783Z,94096.97
2022-10-03T02:35:15.540Z,94089.41
2022-10-03T02:38:25.863Z,94090.41
2022-10-03T02:41:52.924Z,94084.63
2022-10-03T02:45:47.427Z,94083.91
2022-10-03T02:49:08.075Z,94079.41
2022-10-03T02:52:37.796Z,94072.78
2022-10-03T02:56:21.852Z,94075.25
2022-10-03T02:59:52.684Z,94075.19
2022-10-03T03:03:13.743Z,94066.88
2022-10-03T03:06:45.640Z,94071.13
2022-10-03T03:10:13.171Z,94065.25
2022-10-03T03:13:36.373Z,94059.94
2022-10-03T03:17:23.914Z,94054.69
2022-10-03T03:20:26.904Z,94058.25
2022-10-03T03:23:55.475Z,94063.75
2022-10-03T03:27:22.674Z,94047.66
2022-10-03T03:30:37.134Z,94042.09
2022-10-03T03:34:08.139Z,94057.09
2022-10-03T03:37:43.860Z,94051.31
2022-10-03T03:41:10.927Z,94044.69
2022-10-03T03:44:22.933Z,94050.28
2022-10-03T03:48:02.051Z,94049.47
2022-10-03T03:51:17.033Z,94048.50
2022-10-03T03:54:49.170Z,94048.50
2022-10-03T03:57:58.267Z,94051.78
2022-10-03T04:01:14.982Z,94046.66
2022-10-03T04:04:31.144Z,94046.06
2022-10-03T04:07:52.411Z,94045.09
2022-10-03T04:11:33.251Z,94037.16
2022-10-03T04:14:54.215Z,94040.72
2022-10-03T04:18:37.151Z,94038.28
2022-10-03T04:21:44.388Z,94030.44
2022-10-03T04:25:01.768Z,94036.84
2022-10-03T04:29:00.228Z,94030.38
2022-10-03T04:32:15.580Z,94033.81
2022-10-03T04:35:52.250Z,94024.47
2022-10-03T04:39:24.221Z,94025.66
2022-10-03T04:42:38.917Z,94020.50
2022-10-03T04:46:00.191Z,94017.97
2022-10-03T04:49:15.360Z,94017.31
2022-10-03T04:52:54.176Z,94020.25
2022-10-03T04:56:26.734Z,94002.72
2022-10-03T04:59:39.200Z,94000.72
2022-10-03T05:02:52.423Z,93999.91
2022-10-03T05:06:50.039Z,94002.75
2022-10-03T05:10:00.005Z,93999.28
2022-10-03T05:13:47.852Z,93993.16
2022-10-03T05:17:12.085Z,93998.28
2022-10-03T05:20:44.792Z,93993.06
2022-10-03T05:24:16.111Z,93999.91
2022-10-03T05:27:52.258Z,93987.63
2022-10-03T05:31:03.210Z,93984.88
2022-10-03T05:34:24.196Z,93982.78
2022-10-03T05:37:58.695Z,93984.03
2022-10-03T05:41:19.155Z,93981.47
2022-10-03T05:44:41.992Z,93982.59
2022-10-03T05:48:22.022Z,93994.81
2022-10-03T05:51:46.976Z,93979.81
2022-10-03T05:55:17.380Z,93989.13
2022-10-03T05:58:38.595Z,93979.47
2022-10-03T06:02:02.706Z,93971.69
2022-10-03T06:05:17.893Z,93983.97
2022-10-03T06:08:59.168Z,93971.41
2022-10-03T06:12:12.384Z,93981.38
2022-10-03T06:15:23.691Z,93975.16
2022-10-03T06:19:04.445Z,93974.63
2022-10-03T06:22:38.113Z,93980.41
2022-10-03T06:25:47.086Z,93976.47
2022-10-03T06:29:05.070Z,93975.56
2022-10-03T06:32:26.650Z,93977.66
2022-10-03T06:35:50.873Z,93973.50
2022-10-03T06:39:31.042Z,93967.97
2022-10-03T06:43:10.294Z,93966.28
2022-10-03T06:46:40.066Z,93973.41
2022-10-03T06:50:20.092Z,93973.44
2022-10-03T06:53:40.521Z,93969.78
2022-10-03T06:57:18.295Z,93975.28
2022-10-03T07:00:56.676Z,93984.38
2022-10-03T07:04:24.830Z,93979.56
2022-10-03T07:07:45.120Z,93981.63
2022-10-03T07:11:18.882Z,93975.31
2022-10-03T07:14:45.802Z,93974.84
2022-10-03T07:18:33.669Z,93976.00
2022-10-03T07:22:04.965Z,93980.41
2022-10-03T07:25:36.311Z,93973.81
2022-10-03T07:29:00.917Z,93989.19
2022-10-03T07:32:39.800Z,93989.25
2022-10-03T07:36:42.209Z,93986.56
2022-10-03T07:40:26.837Z,93991.28
2022-10-03T07:44:07.367Z,93994.69
2022-10-03T07:47:28.535Z,93993.22
2022-10-03T07:51:00.026Z,93994.41
2022-10-03T07:54:38.488Z,93994.22
2022-10-03T07:57:51.375Z,94002.28
2022-10-03T08:01:28.242Z,93998.59
2022-10-03T08:04:36.959Z,93993.81
2022-10-03T08:08:16.464Z,93990.34
2022-10-03T08:11:22.513Z,93992.97
2022-10-03T08:14:35.934Z,94000.88
2022-10-03T08:18:04.393Z,94002.41
2022-10-03T08:21:31.301Z,93992.97
2022-10-03T08:24:42.949Z,93994.34
2022-10-03T08:28:24.601Z,93989.88
2022-10-03T08:32:12.173Z,94000.41
2022-10-03T08:35:39.323Z,94003.31
2022-10-03T08:39:14.006Z,94003.03
2022-10-03T08:42:51.889Z,94007.78
2022-10-03T08:46:20.653Z,94001.19
2022-10-03T08:49:37.867Z,94002.41
2022-10-03T08:52:48.914Z,93999.06
2022-10-03T08:55:57.999Z,93999.25
2022-10-03T08:59:22.089Z,94002.28
2022-10-03T09:02:46.617Z,94000.47
2022-10-03T09:06:14.024Z,94010.88
2022-10-03T09:09:41.639Z,94007.09
2022-10-03T09:12:57.000Z,94015.78
2022-10-03T09:16:18.962Z,94019.97
2022-10-03T09:19:52.826Z,94016.59
2022-10-03T09:23:26.270Z,94006.41
2022-10-03T09:26:52.493Z,94017.66
2022-10-03T09:30:04.997Z,94017.69
2022-10-03T09:33:13.853Z,94021.06
2022-10-03T09:36:44.590Z,94019.22
2022-10-03T09:40:17.124Z,94021.09
2022-10-03T09:43:24.101Z,94016.38
2022-10-03T09:47:24.125Z,94011.72
2022-10-03T09:50:47.650Z,94008.88
2022-10-03T09:54:22.905Z,94013.31
2022-10-03T09:58:02.418Z,94021.19
2022-10-03T10:01:14.585Z,94015.44
2022-10-03T10:04:53.246Z,94022.59
2022-10-03T10:08:25.390Z,94023.25
2022-10-03T10:11:53.189Z,94024.00
2022-10-03T10:15:08.646Z,94029.47
2022-10-03T10:18:20.950Z,94026.72
2022-10-03T10:21:45.213Z,94033.66
2022-10-03T10:25:27.346Z,94023.03
2022-10-03T10:29:01.140Z,94026.09
2022-10-03T10:32:49.981Z,94028.47
2022-10-03T10:36:01.888Z,94035.38
2022-10-03T10:39:34.889Z,94034.66
2022-10-03T10:43:11.615Z,94039.00
2022-10-03T10:46:35.710Z,94045.19
2022-10-03T10:50:09.640Z,94041.69
2022-10-03T10:53:50.125Z,94040.19
2022-10-03T10:57:27.397Z,94049.06
2022-10-03T11:00:53.704Z,94055.25
2022-10-03T11:04:38.374Z,94056.91
2022-10-03T11:08:24.852Z,94068.34
2022-10-03T11:11:49.747Z,94063.50
2022-10-03T11:15:26.673Z,94054.91
2022-10-03T11:19:04.307Z,94059.22
2022-10-03T11:22:19.739Z,94057.63
2022-10-03T11:25:54.479Z,94065.72
2022-10-03T11:29:03.455Z,94068.22
2022-10-03T11:32:39.777Z,94072.56
2022-10-03T11:36:20.660Z,94071.72
2022-10-03T11:39:29.909Z,94078.38
2022-10-03T11:42:51.382Z,94079.94
2022-10-03T11:46:20.883Z,94076.06
2022-10-03T11:49:48.590Z,94080.19
2022-10-03T11:52:57.277Z,94083.44
2022-10-03T11:56:28.052Z,94077.69
2022-10-03T11:59:38.040Z,94077.13
2022-10-03T12:02:53.057Z,94080.97
2022-10-03T12:06:31.242Z,94080.19
2022-10-03T12:09:49.268Z,94080.78
2022-10-03T12:12:57.489Z,94083.78
2022-10-03T12:16:03.012Z,94082.31
2022-10-03T12:19:24.669Z,94074.38
2022-10-03T12:22:48.814Z,94077.38
2022-10-03T12:25:53.999Z,94077.19
2022-10-03T12:28:59.254Z,94088.09
2022-10-03T12:32:29.411Z,94081.59
2022-10-03T12:35:47.450Z,94078.81
2022-10-03T12:38:59.523Z,94071.56
2022-10-03T12:42:17.257Z,94075.22
2022-10-03T12:45:43.984Z,94080.84
2022-10-03T12:49:08.370Z,94084.50
2022-10-03T12:52:22.637Z,94086.22
2022-10-03T12:55:32.503Z,94085.44
2022-10-03T12:58:50.215Z,94083.94
2022-10-03T13:02:03.049Z,94085.84
2022-10-03T13:05:21.954Z,94089.75
2022-10-03T13:08:43.004Z,94088.34
2022-10-03T13:11:59.476Z,94090.75
2022-10-03T13:15:50.058Z,94093.97
2022-10-03T13:19:03.132Z,94094.66
2022-10-03T13:22:36.744Z,94098.59
2022-10-03T13:25:54.836Z,94095.91
2022-10-03T13:29:12.898Z,94099.75
2022-10-03T13:32:43.041Z,94095.81
2022-10-03T13:36:00.912Z,94100.41
2022-10-03T13:39:30.571Z,94104.25
2022-10-03T13:42:47.810Z,94106.25
2022-10-03T13:45:52.400Z,94099.06
2022-10-03T13:49:02.805Z,94100.50
2022-10-03T13:52:46.555Z,94108.91
2022-10-03T13:55:56.280Z,94100.97
2022-10-03T13:59:30.548Z,94096.47
2022-10-03T14:03:02.256Z,94100.19
2022-10-03T14:06:51.908Z,94096.47
2022-10-03T14:10:27.307Z,94101.72
2022-10-03T14:13:57.610Z,94103.06
2022-10-03T14:17:14.375Z,94106.25
2022-10-03T14:20:33.763Z,94113.34
2022-10-03T14:24:00.089Z,94113.41
2022-10-03T14:27:48.307Z,94108.16
2022-10-03T14:31:15.715Z,94114.56
2022-10-03T14:34:39.659Z,94113.03
2022-10-03T14:37:46.048Z,94110.75
2022-10-03T14:40:51.112Z,94118.22
2022-10-03T14:44:13.415Z,94113.53
2022-10-03T14:47:20.292Z,94113.44
2022-10-03T14:50:27.260Z,94112.00
2022-10-03T14:53:31.262Z,94109.31
2022-10-03T14:56:42.677Z,94111.13
2022-10-03T14:59:54.830Z,94106.53
2022-10-03T15:02:57.882Z,94112.16
2022-10-03T15:06:11.501Z,94103.66
2022-10-03T15:09:56.855Z,94106.78
2022-10-03T15:13:07.703Z,94110.63
2022-10-03T15:16:15.647Z,94107.38
2022-10-03T15:19:33.993Z,94109.38
2022-10-03T15:22:40.983Z,94114.47
2022-10-03T15:25:45.124Z,94109.28
2022-10-03T15:29:00.446Z,94111.28
2022-10-03T15:32:07.137Z,94108.81
2022-10-03T15:35:28.636Z,94099.81
2022-10-03T15:38:38.722Z,94103.16
2022-10-03T15:42:02.569Z,94113.03
2022-10-03T15:45:08.178Z,94117.16
2022-10-03T15:48:17.012Z,94113.63
2022-10-03T15:51:24.801Z,94113.91
2022-10-03T15:54:33.407Z,94103.75
2022-10-03T15:57:42.537Z,94107.38
2022-10-03T16:01:11.356Z,94102.41
2022-10-03T16:04:38.206Z,94098.28
2022-10-03T16:07:59.720Z,94108.34
2022-10-03T16:11:28.464Z,94111.03
2022-10-03T16:14:46.099Z,94096.84
2022-10-03T16:17:56.310Z,94091.50
2022-10-03T16:21:02.651Z,94098.88
2022-10-03T16:24:08.404Z,94086.50
2022-10-03T16:27:37.720Z,94096.47
2022-10-03T16:30:54.797Z,94100.28
2022-10-03T16:34:07.457Z,94097.06
2022-10-03T16:37:24.501Z,94084.69
2022-10-03T16:40:28.600Z,94090.06
2022-10-03T16:43:33.893Z,94092.16
2022-10-03T16:46:40.049Z,94084.59
2022-10-03T16:50:01.636Z,94087.19
2022-10-03T16:53:13.596Z,94080.09
2022-10-03T16:56:23.286Z,94084.00
2022-10-03T16:59:27.463Z,94079.31
2022-10-03T17:02:31.789Z,94089.56
2022-10-03T17:05:44.748Z,94078.66
2022-10-03T17:08:52.806Z,94075.31
2022-10-03T17:11:59.118Z,94082.31
2022-10-03T17:15:08.817Z,94086.06
2022-10-03T17:18:28.011Z,94085.84
2022-10-03T17:21:33.639Z,94082.22
2022-10-03T17:24:45.538Z,94089.19
2022-10-03T17:27:51.518Z,94091.78
2022-10-03T17:31:00.136Z,94087.66
2022-10-03T17:34:26.079Z,94086.94
2022-10-03T17:38:44.673Z,94086.25
2022-10-03T17:42:09.805Z,94077.84
2022-10-03T17:45:45.390Z,94082.34
2022-10-03T17:49:20.471Z,94076.41
2022-10-03T17:52:24.644Z,94078.13
2022-10-03T17:55:50.993Z,94074.66
2022-10-03T17:59:01.066Z,94069.50
2022-10-03T18:02:29.961Z,94074.59
2022-10-03T18:05:41.819Z,94065.38
2022-10-03T18:08:44.910Z,94068.47
2022-10-03T18:11:50.440Z,94058.03
2022-10-03T18:15:36.110Z,94058.03
2022-10-03T18:19:00.875Z,94065.09
2022-10-03T18:22:15.342Z,94070.06
2022-10-03T18:26:21.197Z,94061.66
2022-10-03T18:29:34.913Z,94057.72
2022-10-03T18:32:40.702Z,94054.38
2022-10-03T18:35:46.951Z,94064.50
2022-10-03T18:38:53.227Z,94054.53
2022-10-03T18:42:02.354Z,94054.53
2022-10-03T18:45:07.229Z,94039.53
2022-10-03T18:48:20.918Z,94051.22
2022-10-03T18:51:38.483Z,94048.91
2022-10-03T18:55:21.420Z,94048.03
2022-10-03T18:58:28.149Z,94039.31
2022-10-03T19:01:39.276Z,94039.88
2022-10-03T19:05:05.700Z,94037.28
2022-10-03T19:08:17.708Z,94035.84
2022-10-03T19:11:38.512Z,94018.81
2022-10-03T19:15:08.266Z,94026.44
2022-10-03T19:18:39.695Z,94023.56
2022-10-03T19:21:44.213Z,94022.69
2022-10-03T19:24:59.272Z,94014.75
2022-10-03T19:28:09.388Z,94011.31
2022-10-03T19:31:12.561Z,94007.28
2022-10-03T19:34:29.184Z,94000.69
2022-10-03T19:37:50.966Z,94003.16
2022-10-03T19:41:05.551Z,93997.13
2022-10-03T19:44:15.662Z,93993.13
2022-10-03T19:47:23.871Z,93998.84
2022-10-03T19:50:37.325Z,94002.56
2022-10-03T19:53:43.413Z,93994.03
2022-10-03T19:56:46.497Z,93991.34
2022-10-03T19:59:53.816Z,93991.16
2022-10-03T20:03:06.810Z,93985.25
2022-10-03T20:06:18.203Z,93991.41
2022-10-03T20:09:26.519Z,93990.66
2022-10-03T20:12:32.049Z,93991.00
2022-10-03T20:15:51.329Z,93983.84
2022-10-03T20:19:04.291Z,93990.22
2022-10-03T20:22:07.672Z,93984.19
2022-10-03T20:25:32.211Z,93994.63
2022-10-03T20:28:56.652Z,93986.09
2022-10-03T20:32:04.617Z,93980.00
2022-10-03T20:35:12.523Z,93980.91
2022-10-03T20:38:32.033Z,93979.56
2022-10-03T20:41:43.918Z,93985.19
2022-10-03T20:45:14.937Z,93986.94
2022-10-03T20:48:25.777Z,93983.50
2022-10-03T20:51:42.403Z,93987.09
2022-10-03T20:54:52.724Z,93988.88
2022-10-03T20:58:13.200Z,93985.44
2022-10-03T21:01:27.263Z,93983.41
2022-10-03T21:04:40.811Z,93988.56
2022-10-03T21:07:55.413Z,93988.13
2022-10-03T21:11:01.518Z,93984.31
2022-10-03T21:14:22.918Z,93986.88
2022-10-03T21:17:28.110Z,93981.16
2022-10-03T21:20:39.736Z,93976.66
2022-10-03T21:24:24.797Z,93987.66
2022-10-03T21:27:28.515Z,93988.22
2022-10-03T21:31:09.946Z,93986.88
2022-10-03T21:34:23.669Z,93984.41
2022-10-03T21:37:38.539Z,93992.81
2022-10-03T21:40:56.515Z,93989.13
2022-10-03T21:44:02.203Z,93991.91
2022-10-03T21:47:31.303Z,93996.59
2022-10-03T21:50:44.917Z,93996.25
2022-10-03T21:54:07.566Z,93992.09
2022-10-03T21:57:33.956Z,93987.06
2022-10-03T22:01:18.777Z,93997.09
2022-10-03T22:04:29.957Z,93997.41
2022-10-03T22:07:40.090Z,93989.72
2022-10-03T22:10:57.867Z,93993.00
2022-10-03T22:14:28.475Z,93995.84
2022-10-03T22:17:34.564Z,93995.75
2022-10-03T22:20:38.382Z,94001.59
2022-10-03T22:23:55.007Z,93995.56
2022-10-03T22:27:26.869Z,93989.75
2022-10-03T22:30:34.705Z,93991.19
2022-10-03T22:33:51.939Z,93997.63
2022-10-03T22:36:55.536Z,93994.13
2022-10-03T22:40:03.017Z,93995.34
2022-10-03T22:43:08.819Z,94000.25
2022-10-03T22:46:17.357Z,94005.13
2022-10-03T22:49:29.394Z,94007.00
2022-10-03T22:52:52.486Z,94003.69
2022-10-03T22:56:02.087Z,94002.78
2022-10-03T22:59:10.148Z,94000.94
2022-10-03T23:02:13.749Z,93999.03
2022-10-03T23:05:58.154Z,93998.97
2022-10-03T23:09:27.959Z,93994.81
2022-10-03T23:12:41.599Z,94000.47
2022-10-03T23:15:48.762Z,93997.94
2022-10-03T23:19:23.148Z,93990.19
2022-10-03T23:22:30.150Z,93994.69
2022-10-03T23:25:56.979Z,93994.69
2022-10-03T23:29:03.427Z,93993.31
2022-10-03T23:32:08.500Z,93993.94
2022-10-03T23:35:32.756Z,93991.81
2022-10-03T23:38:36.789Z,93993.59
2022-10-03T23:41:45.332Z,93997.03
2022-10-03T23:44:56.688Z,93988.88
2022-10-03T23:48:15.128Z,93995.66
2022-10-03T23:51:22.480Z,93994.44
2022-10-03T23:54:26.163Z,93997.69
2022-10-03T23:57:38.318Z,94000.44
